Observation data for Morton on 06/21/2019      Previous  Date       Current Mesonet Observations  Soil Data  Daily Summary Page  Observations in Plain Language
KMNS 210500Z 21012KT 24/M00 A2981 RMK A01 T02371004  RH  020%=      5-min Rain = 0
KMNS 210505Z 20011KT 24/M00 A2981 RMK A01 T02351003  RH  021%=      5-min Rain = 0
KMNS 210510Z 21011KT 23/00 A298 RMK A01 T02300000  RH  022%=      5-min Rain = 0
KMNS 210515Z 21011KT 23/00 A298 RMK A01 T022900-0  RH  022%=      5-min Rain = 0
KMNS 210520Z 21011KT 23/M00 A298 RMK A01 T02281002  RH  022%=      5-min Rain = 0
KMNS 210525Z 21012KT 23/M00 A298 RMK A01 T02281003  RH  022%=      5-min Rain = 0
KMNS 210530Z 20012KT 23/M00 A298 RMK A01 T02281003  RH  022%=      5-min Rain = 0
KMNS 210535Z 20012KT 23/M00 A298 RMK A01 T02281004  RH  022%=      5-min Rain = 0
KMNS 210540Z 21012KT 23/M01 A298 RMK A01 T02281005  RH  021%=      5-min Rain = 0
KMNS 210545Z 21013KT 23/M01 A298 RMK A01 T02291008  RH  021%=      5-min Rain = 0
KMNS 210550Z 21012KT 23/M01 A298 RMK A01 T02281008  RH  021%=      5-min Rain = 0
KMNS 210555Z 21012KT 23/M01 A298 RMK A01 T02301012  RH  020%=      5-min Rain = 0
KMNS 210600Z 21012KT 23/M01 A298 RMK A01 T02311014  RH  020%=      5-min Rain = 0
KMNS 210605Z 21013KT 24/M02 A298 RMK A01 T02351020  RH  018%=      5-min Rain = 0
KMNS 210610Z 21014KT 24/M03 A298 RMK A01 T02381025  RH  017%=      5-min Rain = 0
KMNS 210615Z 22015KT 24/M03 A298 RMK A01 T02401030  RH  017%=      5-min Rain = 0
KMNS 210620Z 22015KT 24/M03 A2979 RMK A01 T02441034  RH  016%=      5-min Rain = 0
KMNS 210625Z 22015KT 25/M04 A2979 RMK A01 T02451036  RH  015%=      5-min Rain = 0
KMNS 210630Z 22015KT 24/M04 A2979 RMK A01 T02441038  RH  015%=      5-min Rain = 0
KMNS 210635Z 22015KT 25/M04 A2979 RMK A01 T02481042  RH  014%=      5-min Rain = 0
KMNS 210640Z 22015KT 25/M05 A2979 RMK A01 T02501046  RH  014%=      5-min Rain = 0
KMNS 210645Z 22014G19KT 25/M05 A2979 RMK A01 T02491045  RH  014%=      5-min Rain = 0
KMNS 210650Z 22014KT 25/M04 A2979 RMK A01 T02461044  RH  014%=      5-min Rain = 0
KMNS 210655Z 22014KT 24/M04 A2979 RMK A01 T02441043  RH  015%=      5-min Rain = 0
KMNS 210700Z 22013KT 24/M04 A2979 RMK A01 T02411040  RH  015%=      5-min Rain = 0
KMNS 210705Z 22013KT 24/M04 A2979 RMK A01 T02381037  RH  016%=      5-min Rain = 0
KMNS 210710Z 22013KT 24/M04 A2979 RMK A01 T02351036  RH  016%=      5-min Rain = 0
KMNS 210715Z 21012G17KT 23/M03 A2979 RMK A01 T02321033  RH  017%=      5-min Rain = 0
KMNS 210720Z 21013KT 23/M03 A2979 RMK A01 T02271027  RH  018%=      5-min Rain = 0
KMNS 210725Z 21013KT 23/M03 A2979 RMK A01 T02251026  RH  019%=      5-min Rain = 0
KMNS 210730Z 22013KT 23/M03 A2979 RMK A01 T02271029  RH  018%=      5-min Rain = 0
KMNS 210735Z 22013KT 23/M03 A2979 RMK A01 T02251027  RH  019%=      5-min Rain = 0
KMNS 210740Z 22013KT 23/M03 A2979 RMK A01 T02261029  RH  018%=      5-min Rain = 0
KMNS 210745Z 22013KT 23/M03 A2979 RMK A01 T02251028  RH  018%=      5-min Rain = 0
KMNS 210750Z 22013KT 22/M03 A2979 RMK A01 T02231028  RH  019%=      5-min Rain = 0
KMNS 210755Z 22013KT 23/M03 A2979 RMK A01 T02251031  RH  018%=      5-min Rain = 0
KMNS 210800Z 23013KT 23/M03 A2979 RMK A01 T02261032  RH  018%=      5-min Rain = 0
KMNS 210805Z 23013KT 23/M03 A2979 RMK A01 T02261034  RH  018%=      5-min Rain = 0
KMNS 210810Z 23013KT 23/M04 A2979 RMK A01 T02271035  RH  017%=      5-min Rain = 0
KMNS 210815Z 23013KT 23/M04 A2979 RMK A01 T02271035  RH  017%=      5-min Rain = 0
KMNS 210820Z 22014KT 23/M04 A2979 RMK A01 T02271036  RH  017%=      5-min Rain = 0
KMNS 210825Z 23014G22KT 23/M04 A2979 RMK A01 T02271035  RH  017%=      5-min Rain = 0
KMNS 210830Z 23015KT 23/M04 A2979 RMK A01 T02311039  RH  016%=      5-min Rain = 0
KMNS 210835Z 23017G23KT 24/M04 A2978 RMK A01 T02361044  RH  015%=      5-min Rain = 0
KMNS 210840Z 23017KT 24/M05 A2979 RMK A01 T02391046  RH  015%=      5-min Rain = 0
KMNS 210845Z 24017KT 24/M05 A2979 RMK A01 T02391046  RH  015%=      5-min Rain = 0
KMNS 210850Z 24017G24KT 24/M05 A2979 RMK A01 T02381045  RH  015%=      5-min Rain = 0
KMNS 210855Z 24017KT 24/M05 A2979 RMK A01 T02371045  RH  015%=      5-min Rain = 0
KMNS 210900Z 24017KT 24/M05 A2979 RMK A01 T02391047  RH  015%=      5-min Rain = 0
KMNS 210905Z 24017KT 24/M05 A2979 RMK A01 T02371045  RH  015%=      5-min Rain = 0
KMNS 210910Z 24017KT 24/M04 A2979 RMK A01 T02351044  RH  015%=      5-min Rain = 0
KMNS 210915Z 24015G20KT 23/M04 A2979 RMK A01 T02331042  RH  016%=      5-min Rain = 0
KMNS 210920Z 22013KT 23/M04 A2979 RMK A01 T02291037  RH  017%=      5-min Rain = 0
KMNS 210925Z 24014KT 22/M03 A2979 RMK A01 T02231033  RH  018%=      5-min Rain = 0
KMNS 210930Z 23013KT 23/M04 A2979 RMK A01 T02271037  RH  017%=      5-min Rain = 0
KMNS 210935Z 22013G18KT 23/M04 A298 RMK A01 T02261036  RH  017%=      5-min Rain = 0
KMNS 210940Z 22014KT 23/M04 A298 RMK A01 T02311041  RH  016%=      5-min Rain = 0
KMNS 210945Z 22014KT 23/M04 A298 RMK A01 T02271040  RH  017%=      5-min Rain = 0
KMNS 210950Z 23013KT 22/M04 A298 RMK A01 T02231038  RH  017%=      5-min Rain = 0
KMNS 210955Z 22013KT 22/M04 A298 RMK A01 T02231039  RH  017%=      5-min Rain = 0
KMNS 211000Z 23013KT 22/M04 A2981 RMK A01 T02231040  RH  017%=      5-min Rain = 0
KMNS 211005Z 23012KT 22/M04 A2981 RMK A01 T02231040  RH  017%=      5-min Rain = 0
KMNS 211010Z 23012KT 22/M04 A2981 RMK A01 T02191038  RH  018%=      5-min Rain = 0
KMNS 211015Z 22011KT 22/M04 A2981 RMK A01 T02171035  RH  018%=      5-min Rain = 0
KMNS 211020Z 21011KT 21/M03 A2982 RMK A01 T02091029  RH  020%=      5-min Rain = 0
KMNS 211025Z 19010KT 20/M02 A2982 RMK A01 T02041024  RH  022%=      5-min Rain = 0
KMNS 211030Z 17010G15KT 19/M02 A2983 RMK A01 T01921015  RH  025%=      5-min Rain = 0
KMNS 211035Z 19013KT 18/M01 A2983 RMK A01 T01821014  RH  027%=      5-min Rain = 0
KMNS 211040Z 20012KT 19/M02 A2983 RMK A01 T01941021  RH  023%=      5-min Rain = 0
KMNS 211045Z 20013KT 19/M02 A2983 RMK A01 T01881022  RH  024%=      5-min Rain = 0
KMNS 211050Z 20013KT 19/M02 A2984 RMK A01 T01891024  RH  024%=      5-min Rain = 0
KMNS 211055Z 20013KT 19/M02 A2984 RMK A01 T01911024  RH  023%=      5-min Rain = 0
KMNS 211100Z 20013KT 18/M02 A2984 RMK A01 T01841022  RH  025%=      5-min Rain = 0
KMNS 211105Z 20013KT 19/M03 A2985 RMK A01 T01921031  RH  022%=      5-min Rain = 0
KMNS 211110Z 21014KT 20/M04 A2984 RMK A01 T01991036  RH  020%=      5-min Rain = 0
KMNS 211115Z 21014KT 20/M04 A2985 RMK A01 T02001035  RH  020%=      5-min Rain = 0
KMNS 211120Z 21013KT 20/M04 A2985 RMK A01 T02041038  RH  019%=      5-min Rain = 0
KMNS 211125Z 21012KT 21/M04 A2985 RMK A01 T02051036  RH  020%=      5-min Rain = 0
KMNS 211130Z 21012KT 20/M03 A2985 RMK A01 T02011033  RH  020%=      5-min Rain = 0
KMNS 211135Z 21011KT 20/M03 A2985 RMK A01 T01981031  RH  021%=      5-min Rain = 0
KMNS 211140Z 21011KT 19/M03 A2985 RMK A01 T01931026  RH  023%=      5-min Rain = 0
KMNS 211145Z 21011KT 19/M03 A2985 RMK A01 T01941026  RH  023%=      5-min Rain = 0
KMNS 211150Z 21010KT 19/M02 A2985 RMK A01 T01891021  RH  024%=      5-min Rain = 0
KMNS 211155Z 20011KT 18/M01 A2986 RMK A01 T01841014  RH  026%=      5-min Rain = 0
KMNS 211200Z 20010KT 18/M01 A2986 RMK A01 T01811012  RH  027%=      5-min Rain = 0
KMNS 211205Z 21011KT 18/M01 A2986 RMK A01 T01841011  RH  027%=      5-min Rain = 0
KMNS 211210Z 21011KT 19/M01 A2987 RMK A01 T01861009  RH  027%=      5-min Rain = 0
KMNS 211215Z 21011KT 19/M01 A2987 RMK A01 T01871005  RH  028%=      5-min Rain = 0
KMNS 211220Z 21011KT 19/M00 A2987 RMK A01 T01931004  RH  027%=      5-min Rain = 0
KMNS 211225Z 22010KT 19/M00 A2987 RMK A01 T01941003  RH  027%=      5-min Rain = 0
KMNS 211230Z 22010KT 20/M00 A2987 RMK A01 T01981003  RH  026%=      5-min Rain = 0
KMNS 211235Z 22012KT 20/M00 A2987 RMK A01 T02021003  RH  026%=      5-min Rain = 0
KMNS 211240Z 23011KT 21/00 A2988 RMK A01 T02050001  RH  026%=      5-min Rain = 0
KMNS 211245Z 23012KT 21/M00 A2988 RMK A01 T02091001  RH  025%=      5-min Rain = 0
KMNS 211250Z 24008KT 21/00 A2988 RMK A01 T02080004  RH  026%=      5-min Rain = 0
KMNS 211255Z 23008KT 21/00 A2989 RMK A01 T02110004  RH  025%=      5-min Rain = 0
KMNS 211300Z 22009KT 21/00 A2989 RMK A01 T02130003  RH  025%=      5-min Rain = 0
KMNS 211305Z 23009KT 22/00 A2989 RMK A01 T02150004  RH  025%=      5-min Rain = 0
KMNS 211310Z 23009KT 22/00 A2989 RMK A01 T02190002  RH  024%=      5-min Rain = 0
KMNS 211315Z 23009KT 22/00 A2989 RMK A01 T02240001  RH  023%=      5-min Rain = 0
KMNS 211320Z 22009KT 23/M00 A2989 RMK A01 T02271001  RH  022%=      5-min Rain = 0
KMNS 211325Z 23010KT 23/00 A2989 RMK A01 T02280002  RH  022%=      5-min Rain = 0
KMNS 211330Z 23009KT 23/00 A299 RMK A01 T02320002  RH  022%=      5-min Rain = 0
KMNS 211335Z 22009KT 24/M00 A299 RMK A01 T02371003  RH  021%=      5-min Rain = 0
KMNS 211340Z 23008KT 24/M00 A299 RMK A01 T02401001  RH  021%=      5-min Rain = 0
KMNS 211345Z 22010KT 24/M01 A299 RMK A01 T02441007  RH  019%=      5-min Rain = 0
KMNS 211350Z 22009KT 25/M00 A299 RMK A01 T02471004  RH  019%=      5-min Rain = 0
KMNS 211355Z 23009KT 25/M00 A299 RMK A01 T02501003  RH  019%=      5-min Rain = 0
KMNS 211400Z 23009KT 25/M01 A299 RMK A01 T02521005  RH  019%=      5-min Rain = 0
KMNS 211405Z 24009KT 26/M01 A299 RMK A01 T02571006  RH  018%=      5-min Rain = 0
KMNS 211410Z 24008KT 26/M01 A299 RMK A01 T02611009  RH  017%=      5-min Rain = 0
KMNS 211415Z 25008KT 26/M01 A299 RMK A01 T02641013  RH  016%=      5-min Rain = 0
KMNS 211420Z 24007KT 27/M01 A299 RMK A01 T02681009  RH  016%=      5-min Rain = 0
KMNS 211425Z 25007KT 27/M01 A299 RMK A01 T02701012  RH  016%=      5-min Rain = 0
KMNS 211430Z 25008KT 27/M01 A2991 RMK A01 T02711011  RH  016%=      5-min Rain = 0
KMNS 211435Z 25007KT 28/M01 A2991 RMK A01 T02751007  RH  016%=      5-min Rain = 0
KMNS 211440Z 24008KT 28/M01 A2991 RMK A01 T02781007  RH  016%=      5-min Rain = 0
KMNS 211445Z 25007KT 28/00 A2991 RMK A01 T028300-0  RH  016%=      5-min Rain = 0
KMNS 211450Z 26008KT 28/M01 A2991 RMK A01 T02841007  RH  015%=      5-min Rain = 0
KMNS 211455Z 26008KT 29/M01 A2991 RMK A01 T02861009  RH  015%=      5-min Rain = 0
KMNS 211500Z 25007KT 29/M01 A2991 RMK A01 T02891011  RH  014%=      5-min Rain = 0
KMNS 211505Z 25007KT 29/M02 A2991 RMK A01 T02901015  RH  014%=      5-min Rain = 0
KMNS 211510Z 24006KT 29/M01 A2991 RMK A01 T02901010  RH  014%=      5-min Rain = 0
KMNS 211515Z 25006KT 29/M01 A2991 RMK A01 T02941009  RH  014%=      5-min Rain = 0
KMNS 211520Z 25006KT 30/M01 A2991 RMK A01 T02971009  RH  014%=      5-min Rain = 0
KMNS 211525Z 24005KT 30/M01 A299 RMK A01 T03001009  RH  014%=      5-min Rain = 0
KMNS 211530Z 26005KT 30/M01 A2991 RMK A01 T03031014  RH  013%=      5-min Rain = 0
KMNS 211535Z 26005KT 30/M02 A2991 RMK A01 T03041020  RH  012%=      5-min Rain = 0
KMNS 211540Z 24006KT 31/M01 A2991 RMK A01 T03081009  RH  013%=      5-min Rain = 0
KMNS 211545Z 24005KT 31/M02 A2991 RMK A01 T03091023  RH  012%=      5-min Rain = 0
KMNS 211550Z 25005G10KT 31/M03 A2991 RMK A01 T03101032  RH  011%=      5-min Rain = 0
KMNS 211555Z 24005KT 31/M03 A2991 RMK A01 T03111032  RH  011%=      5-min Rain = 0
KMNS 211600Z 24005KT 31/M03 A2991 RMK A01 T03141026  RH  011%=      5-min Rain = 0
KMNS 211605Z 27003KT 32/M05 A2991 RMK A01 T03151045  RH  010%=      5-min Rain = 0
KMNS 211610Z 22003KT 32/M04 A2991 RMK A01 T03151044  RH  010%=      5-min Rain = 0
KMNS 211615Z 22006KT 32/M05 A2991 RMK A01 T03171045  RH  009%=      5-min Rain = 0
KMNS 211620Z 22003KT 32/M04 A2991 RMK A01 T03161037  RH  010%=      5-min Rain = 0
KMNS 211625Z 26003KT 32/M04 A2991 RMK A01 T03201037  RH  010%=      5-min Rain = 0
KMNS 211630Z 25003KT 32/M05 A2991 RMK A01 T03211052  RH  009%=      5-min Rain = 0
KMNS 211635Z 26004KT 32/M05 A2991 RMK A01 T03211052  RH  009%=      5-min Rain = 0
KMNS 211640Z 25004KT 32/M04 A2991 RMK A01 T03221044  RH  009%=      5-min Rain = 0
KMNS 211645Z 22005KT 32/M04 A299 RMK A01 T03231038  RH  010%=      5-min Rain = 0
KMNS 211650Z 23003KT 33/M04 A299 RMK A01 T03251040  RH  009%=      5-min Rain = 0
KMNS 211655Z 22005KT 33/M04 A299 RMK A01 T03261040  RH  009%=      5-min Rain = 0
KMNS 211700Z 21005KT 33/M03 A299 RMK A01 T03251034  RH  010%=      5-min Rain = 0
KMNS 211705Z 26006KT 33/M02 A299 RMK A01 T03291023  RH  010%=      5-min Rain = 0
KMNS 211710Z 26009G15KT 33/M03 A299 RMK A01 T03331025  RH  010%=      5-min Rain = 0
KMNS 211715Z 26008KT 33/M03 A299 RMK A01 T03311029  RH  010%=      5-min Rain = 0
KMNS 211720Z 25011KT 33/M04 A299 RMK A01 T03321042  RH  009%=      5-min Rain = 0
KMNS 211725Z 26009KT 33/M04 A299 RMK A01 T03321040  RH  009%=      5-min Rain = 0
KMNS 211730Z 24009G14KT 33/M04 A299 RMK A01 T03311038  RH  009%=      5-min Rain = 0
KMNS 211735Z 25005G11KT 33/M03 A299 RMK A01 T03311031  RH  010%=      5-min Rain = 0
KMNS 211740Z 23009G14KT 34/M03 A299 RMK A01 T03361025  RH  010%=      5-min Rain = 0
KMNS 211745Z 21009G16KT 34/M03 A299 RMK A01 T03351028  RH  010%=      5-min Rain = 0
KMNS 211750Z 22011KT 34/M03 A299 RMK A01 T03361029  RH  010%=      5-min Rain = 0
KMNS 211755Z 21009KT 33/M03 A299 RMK A01 T03341027  RH  010%=      5-min Rain = 0
KMNS 211800Z 23009G17KT 34/M03 A2989 RMK A01 T03351027  RH  010%=      5-min Rain = 0
KMNS 211805Z 25008G14KT 34/M04 A2989 RMK A01 T03381037  RH  009%=      5-min Rain = 0
KMNS 211810Z 21008G14KT 34/M03 A2989 RMK A01 T03361026  RH  010%=      5-min Rain = 0
KMNS 211815Z 22012KT 34/M02 A2989 RMK A01 T03381023  RH  010%=      5-min Rain = 0
KMNS 211820Z 24009G15KT 34/M02 A2989 RMK A01 T03391022  RH  010%=      5-min Rain = 0
KMNS 211825Z 23012KT 34/M03 A2989 RMK A01 T03411031  RH  009%=      5-min Rain = 0
KMNS 211830Z 20010G15KT 34/M01 A2989 RMK A01 T03401011  RH  011%=      5-min Rain = 0
KMNS 211835Z 22010G16KT 34/M03 A2989 RMK A01 T03411028  RH  009%=      5-min Rain = 0
KMNS 211840Z 21012KT 34/M03 A2988 RMK A01 T03441029  RH  009%=      5-min Rain = 0
KMNS 211845Z 24011KT 35/M03 A2988 RMK A01 T03451032  RH  009%=      5-min Rain = 0
KMNS 211850Z 26012G17KT 35/M04 A2988 RMK A01 T03451037  RH  009%=      5-min Rain = 0
KMNS 211855Z 23008G16KT 34/M03 A2988 RMK A01 T03441032  RH  009%=      5-min Rain = 0
KMNS 211900Z 22007G14KT 35/M02 A2988 RMK A01 T03481020  RH  010%=      5-min Rain = 0
KMNS 211905Z 22009G15KT 35/M04 A2987 RMK A01 T03481036  RH  009%=      5-min Rain = 0
KMNS 211910Z 23014G19KT 35/M04 A2987 RMK A01 T03491037  RH  008%=      5-min Rain = 0
KMNS 211915Z 21010G15KT 35/M03 A2987 RMK A01 T03481032  RH  009%=      5-min Rain = 0
KMNS 211920Z 23010G16KT 35/M03 A2987 RMK A01 T03531025  RH  009%=      5-min Rain = 0
KMNS 211925Z 22011G19KT 36/M03 A2987 RMK A01 T03551034  RH  008%=      5-min Rain = 0
KMNS 211930Z 21010G16KT 36/M02 A2986 RMK A01 T03591017  RH  009%=      5-min Rain = 0
KMNS 211935Z 23012G19KT 36/M03 A2986 RMK A01 T03591033  RH  008%=      5-min Rain = 0
KMNS 211940Z 23013G21KT 36/M03 A2986 RMK A01 T03571030  RH  008%=      5-min Rain = 0
KMNS 211945Z 21012G21KT 35/M03 A2986 RMK A01 T03541031  RH  009%=      5-min Rain = 0
KMNS 211950Z 21011G17KT 36/M03 A2986 RMK A01 T03561027  RH  009%=      5-min Rain = 0
KMNS 211955Z 22017G25KT 36/M03 A2985 RMK A01 T03601031  RH  008%=      5-min Rain = 0
KMNS 212000Z 21016KT 36/M03 A2985 RMK A01 T03621026  RH  008%=      5-min Rain = 0
KMNS 212005Z 22011G19KT 36/M03 A2985 RMK A01 T03561032  RH  008%=      5-min Rain = 0
KMNS 212010Z 23011G17KT 36/M03 A2985 RMK A01 T03561032  RH  008%=      5-min Rain = 0
KMNS 212015Z 22010G16KT 36/M02 A2985 RMK A01 T03581024  RH  009%=      5-min Rain = 0
KMNS 212020Z 20013G22KT 36/M03 A2984 RMK A01 T03591025  RH  009%=      5-min Rain = 0
KMNS 212025Z 20011KT 36/M02 A2984 RMK A01 T03591016  RH  009%=      5-min Rain = 0
KMNS 212030Z 24015G21KT 36/M03 A2984 RMK A01 T03631030  RH  008%=      5-min Rain = 0
KMNS 212035Z 22013G19KT 37/M02 A2984 RMK A01 T03651020  RH  009%=      5-min Rain = 0
KMNS 212040Z 21017G28KT 37/M02 A2984 RMK A01 T03661021  RH  009%=      5-min Rain = 0
KMNS 212045Z 22018G25KT 36/M03 A2984 RMK A01 T03641028  RH  008%=      5-min Rain = 0
KMNS 212050Z 22015G20KT 37/M03 A2984 RMK A01 T03671025  RH  008%=      5-min Rain = 0
KMNS 212055Z 20015G25KT 36/M02 A2983 RMK A01 T03641024  RH  008%=      5-min Rain = 0
KMNS 212100Z 20018G28KT 37/M02 A2983 RMK A01 T03651020  RH  009%=      5-min Rain = 0
KMNS 212105Z 20018G26KT 36/M03 A2983 RMK A01 T03641026  RH  008%=      5-min Rain = 0
KMNS 212110Z 20019G25KT 37/M02 A2983 RMK A01 T03671020  RH  009%=      5-min Rain = 0
KMNS 212115Z 20015G23KT 37/M02 A2983 RMK A01 T03651021  RH  009%=      5-min Rain = 0
KMNS 212120Z 21016G23KT 37/M02 A2982 RMK A01 T03651020  RH  009%=      5-min Rain = 0
KMNS 212125Z 21016G21KT 37/M01 A2982 RMK A01 T03671014  RH  009%=      5-min Rain = 0
KMNS 212130Z 21017G25KT 37/M02 A2982 RMK A01 T03671018  RH  009%=      5-min Rain = 0
KMNS 212135Z 21017G26KT 37/M02 A2982 RMK A01 T03661016  RH  009%=      5-min Rain = 0
KMNS 212140Z 20015KT 37/M01 A2981 RMK A01 T03681008  RH  009%=      5-min Rain = 0
KMNS 212145Z 20016G24KT 37/M01 A2981 RMK A01 T03681007  RH  010%=      5-min Rain = 0
KMNS 212150Z 22020G27KT 37/M02 A2981 RMK A01 T03691016  RH  009%=      5-min Rain = 0
KMNS 212155Z 22020G25KT 37/M02 A2981 RMK A01 T03681016  RH  009%=      5-min Rain = 0
KMNS 212200Z 21017G22KT 37/M01 A2981 RMK A01 T03701012  RH  009%=      5-min Rain = 0
KMNS 212205Z 20021G26KT 37/M01 A2981 RMK A01 T03701013  RH  009%=      5-min Rain = 0
KMNS 212210Z 20021G29KT 37/M01 A298 RMK A01 T03681014  RH  009%=      5-min Rain = 0
KMNS 212215Z 21023G28KT 37/M02 A298 RMK A01 T03701017  RH  009%=      5-min Rain = 0
KMNS 212220Z 22021G27KT 37/M02 A298 RMK A01 T03681017  RH  009%=      5-min Rain = 0
KMNS 212225Z 21018G24KT 37/M01 A298 RMK A01 T03681014  RH  009%=      5-min Rain = 0
KMNS 212230Z 22018G23KT 37/M02 A298 RMK A01 T03691016  RH  009%=      5-min Rain = 0
KMNS 212235Z 22020G27KT 37/M02 A298 RMK A01 T03681016  RH  009%=      5-min Rain = 0
KMNS 212240Z 22018G24KT 37/M01 A298 RMK A01 T03691012  RH  009%=      5-min Rain = 0
KMNS 212245Z 22016G22KT 37/M01 A298 RMK A01 T03681012  RH  009%=      5-min Rain = 0
KMNS 212250Z 21015G23KT 37/M01 A298 RMK A01 T03691010  RH  009%=      5-min Rain = 0
KMNS 212255Z 21019G26KT 37/M01 A2979 RMK A01 T03691013  RH  009%=      5-min Rain = 0
KMNS 212300Z 22020KT 37/M02 A2979 RMK A01 T03671019  RH  009%=      5-min Rain = 0
KMNS 212305Z 21017G23KT 37/M01 A2979 RMK A01 T03671013  RH  009%=      5-min Rain = 0
KMNS 212310Z 20015G20KT 37/M01 A2979 RMK A01 T03661010  RH  009%=      5-min Rain = 0
KMNS 212315Z 20016G23KT 37/M01 A2979 RMK A01 T03661013  RH  009%=      5-min Rain = 0
KMNS 212320Z 21018G23KT 37/M02 A2979 RMK A01 T03651017  RH  009%=      5-min Rain = 0
KMNS 212325Z 21019G25KT 37/M02 A2979 RMK A01 T03651018  RH  009%=      5-min Rain = 0
KMNS 212330Z 22017G22KT 36/M02 A2979 RMK A01 T03641018  RH  009%=      5-min Rain = 0
KMNS 212335Z 22016KT 36/M02 A2978 RMK A01 T03641016  RH  009%=      5-min Rain = 0
KMNS 212340Z 21015G21KT 36/M01 A2978 RMK A01 T03631013  RH  009%=      5-min Rain = 0
KMNS 212345Z 22014G21KT 36/M02 A2978 RMK A01 T03631016  RH  009%=      5-min Rain = 0
KMNS 212350Z 21018G24KT 36/M02 A2978 RMK A01 T03621017  RH  009%=      5-min Rain = 0
KMNS 212355Z 21016KT 36/M02 A2978 RMK A01 T03611019  RH  009%=      5-min Rain = 0
KMNS 220000Z 20013KT 36/M02 A2978 RMK A01 T03591018  RH  009%=      5-min Rain = 0
KMNS 220005Z 21019G25KT 36/M02 A2978 RMK A01 T03601018  RH  009%=      5-min Rain = 0
KMNS 220010Z 21014G20KT 36/M02 A2978 RMK A01 T03591016  RH  009%=      5-min Rain = 0
KMNS 220015Z 21013G18KT 36/M01 A2978 RMK A01 T03601009  RH  010%=      5-min Rain = 0
KMNS 220020Z 21016G21KT 36/M02 A2978 RMK A01 T03581015  RH  009%=      5-min Rain = 0
KMNS 220025Z 21016KT 36/M01 A2978 RMK A01 T03571014  RH  010%=      5-min Rain = 0
KMNS 220030Z 21014KT 36/M02 A2978 RMK A01 T03561015  RH  009%=      5-min Rain = 0
KMNS 220035Z 21012KT 36/M01 A2978 RMK A01 T03551008  RH  010%=      5-min Rain = 0
KMNS 220040Z 20014KT 35/M01 A2978 RMK A01 T03531005  RH  010%=      5-min Rain = 0
KMNS 220045Z 20015G21KT 35/M01 A2978 RMK A01 T03521013  RH  010%=      5-min Rain = 0
KMNS 220050Z 20016KT 35/M02 A2978 RMK A01 T03511016  RH  010%=      5-min Rain = 0
KMNS 220055Z 20014KT 35/M01 A2978 RMK A01 T03491011  RH  010%=      5-min Rain = 0
KMNS 220100Z 21013KT 35/M01 A2978 RMK A01 T03481006  RH  011%=      5-min Rain = 0
KMNS 220105Z 21014KT 35/M01 A2978 RMK A01 T03471006  RH  011%=      5-min Rain = 0
KMNS 220110Z 21011KT 34/00 A2978 RMK A01 T03440001  RH  011%=      5-min Rain = 0
KMNS 220115Z 22009KT 34/01 A2978 RMK A01 T03410006  RH  012%=      5-min Rain = 0
KMNS 220120Z 21007KT 34/01 A2978 RMK A01 T03370014  RH  013%=      5-min Rain = 0
KMNS 220125Z 22007KT 33/02 A2978 RMK A01 T03340018  RH  014%=      5-min Rain = 0
KMNS 220130Z 22007KT 33/02 A2978 RMK A01 T03320019  RH  014%=      5-min Rain = 0
KMNS 220135Z 22007KT 33/02 A2978 RMK A01 T03280023  RH  015%=      5-min Rain = 0
KMNS 220140Z 22007KT 32/02 A2978 RMK A01 T03230024  RH  015%=      5-min Rain = 0
KMNS 220145Z 21008KT 32/03 A2978 RMK A01 T03170026  RH  016%=      5-min Rain = 0
KMNS 220150Z 22009KT 32/01 A2978 RMK A01 T03200014  RH  014%=      5-min Rain = 0
KMNS 220155Z 23010KT 32/01 A2977 RMK A01 T03180008  RH  014%=      5-min Rain = 0
KMNS 220200Z 22011KT 32/M00 A2978 RMK A01 T03191002  RH  013%=      5-min Rain = 0
KMNS 220205Z 22008KT 31/00 A2979 RMK A01 T03140004  RH  014%=      5-min Rain = 0
KMNS 220210Z 22008KT 31/01 A2979 RMK A01 T03070010  RH  015%=      5-min Rain = 0
KMNS 220215Z 22008KT 30/01 A2979 RMK A01 T03010013  RH  016%=      5-min Rain = 0
KMNS 220220Z 22008KT 30/02 A298 RMK A01 T02990015  RH  016%=      5-min Rain = 0
KMNS 220225Z 22008KT 30/02 A298 RMK A01 T02960018  RH  017%=      5-min Rain = 0
KMNS 220230Z 22008KT 29/02 A2981 RMK A01 T02900022  RH  018%=      5-min Rain = 0
KMNS 220235Z 21008KT 29/03 A2981 RMK A01 T02870025  RH  019%=      5-min Rain = 0
KMNS 220240Z 21008KT 28/03 A2981 RMK A01 T02830029  RH  020%=      5-min Rain = 0
KMNS 220245Z 20008KT 27/04 A2982 RMK A01 T02740036  RH  022%=      5-min Rain = 0
KMNS 220250Z 20009KT 27/04 A2982 RMK A01 T02720036  RH  022%=      5-min Rain = 0
KMNS 220255Z 20009KT 27/04 A2982 RMK A01 T02710037  RH  023%=      5-min Rain = 0
KMNS 220300Z 20009KT 27/04 A2982 RMK A01 T02690037  RH  023%=      5-min Rain = 0
KMNS 220305Z 20008KT 27/03 A2983 RMK A01 T02680034  RH  023%=      5-min Rain = 0
KMNS 220310Z 20009KT 27/04 A2983 RMK A01 T02670035  RH  023%=      5-min Rain = 0
KMNS 220315Z 20010KT 27/04 A2983 RMK A01 T02670038  RH  023%=      5-min Rain = 0
KMNS 220320Z 20009KT 27/04 A2983 RMK A01 T02650036  RH  023%=      5-min Rain = 0
KMNS 220325Z 20010KT 26/04 A2983 RMK A01 T02640037  RH  024%=      5-min Rain = 0
KMNS 220330Z 20010KT 26/04 A2983 RMK A01 T02630037  RH  024%=      5-min Rain = 0
KMNS 220335Z 20008KT 26/04 A2983 RMK A01 T02600039  RH  024%=      5-min Rain = 0
KMNS 220340Z 20008KT 26/04 A2983 RMK A01 T02570041  RH  025%=      5-min Rain = 0
KMNS 220345Z 20008KT 25/05 A2983 RMK A01 T02480047  RH  028%=      5-min Rain = 0
KMNS 220350Z 21009KT 25/04 A2983 RMK A01 T02530039  RH  025%=      5-min Rain = 0
KMNS 220355Z 22011KT 26/03 A2983 RMK A01 T02630029  RH  022%=      5-min Rain = 0
KMNS 220400Z 22010KT 27/02 A2984 RMK A01 T02680022  RH  021%=      5-min Rain = 0
KMNS 220405Z 21010KT 27/02 A2984 RMK A01 T02700018  RH  020%=      5-min Rain = 0
KMNS 220410Z 16011G16KT 26/03 A2985 RMK A01 T02600030  RH  023%=      5-min Rain = 0
KMNS 220415Z 16012G17KT 26/05 A2985 RMK A01 T02550048  RH  027%=      5-min Rain = 0
KMNS 220420Z 16014G20KT 27/08 A2985 RMK A01 T02680076  RH  030%=      5-min Rain = 0
KMNS 220425Z 16015G22KT 28/09 A2985 RMK A01 T02750087  RH  031%=      5-min Rain = 0
KMNS 220430Z 16015G22KT 28/09 A2985 RMK A01 T02770093  RH  032%=      5-min Rain = 0
KMNS 220435Z 17014G19KT 28/10 A2985 RMK A01 T02770096  RH  033%=      5-min Rain = 0
KMNS 220440Z 17015G20KT 28/10 A2985 RMK A01 T02760098  RH  034%=      5-min Rain = 0
KMNS 220445Z 17014KT 27/10 A2985 RMK A01 T02740100  RH  035%=      5-min Rain = 0
KMNS 220450Z 18014KT 27/10 A2985 RMK A01 T02710103  RH  036%=      5-min Rain = 0
KMNS 220455Z 17014KT 27/11 A2985 RMK A01 T02700105  RH  037%=      5-min Rain = 0

Page generated in 0.022 seconds.